createdAt,value
2022-12-18T00:10:05.747Z,17
2022-12-18T00:38:59.729Z,16
2022-12-18T01:07:57.961Z,16
2022-12-18T01:36:53.872Z,16
2022-12-18T02:05:56.343Z,16
2022-12-18T02:34:55.970Z,15
2022-12-18T03:03:47.713Z,15
2022-12-18T03:32:30.335Z,16
2022-12-18T04:00:58.234Z,15
2022-12-18T04:29:28.268Z,15
2022-12-18T04:58:02.944Z,14
2022-12-18T05:26:25.961Z,14
2022-12-18T05:55:04.860Z,14
2022-12-18T06:23:39.727Z,14
2022-12-18T06:52:15.688Z,14
2022-12-18T07:21:07.931Z,14
2022-12-18T07:50:03.773Z,14
2022-12-18T08:18:50.516Z,15
2022-12-18T08:47:30.165Z,16
2022-12-18T09:16:12.822Z,17
2022-12-18T09:44:55.041Z,16
2022-12-18T10:13:37.667Z,16
2022-12-18T10:42:29.839Z,16
2022-12-18T11:11:15.614Z,16
2022-12-18T11:39:54.496Z,16
2022-12-18T12:08:41.785Z,16
2022-12-18T12:37:17.491Z,15
2022-12-18T13:05:54.208Z,16
2022-12-18T13:34:29.265Z,16
2022-12-18T14:02:51.759Z,16
2022-12-18T14:31:18.354Z,16
2022-12-18T14:59:53.434Z,16
2022-12-18T15:28:26.200Z,16
2022-12-18T15:56:58.754Z,17
2022-12-18T16:25:30.077Z,17
2022-12-18T16:54:14.706Z,17
2022-12-18T17:22:32.025Z,17
2022-12-18T17:51:05.686Z,17
2022-12-18T18:19:40.633Z,17
2022-12-18T18:48:03.096Z,18
2022-12-18T19:16:38.094Z,17
2022-12-18T19:45:09.315Z,18
2022-12-18T20:13:47.286Z,17
2022-12-18T20:42:20.573Z,17
2022-12-18T21:10:56.648Z,17
2022-12-18T21:39:27.983Z,19
2022-12-18T22:08:09.476Z,20
2022-12-18T22:36:41.097Z,20
2022-12-18T23:05:19.327Z,20
2022-12-18T23:34:03.452Z,21
